sensor_id;sensor_type;location;lat;lon;timestamp;P1;durP1;ratioP1;P2;durP2;ratioP2
19861;SDS011;10093;48.148;8.542;2023-08-06T00:00:06;2.08;;;1.17;;
19861;SDS011;10093;48.148;8.542;2023-08-06T00:02:33;4.55;;;1.52;;
19861;SDS011;10093;48.148;8.542;2023-08-06T00:04:59;4.85;;;1.67;;
19861;SDS011;10093;48.148;8.542;2023-08-06T00:07:24;3.97;;;1.52;;
19861;SDS011;10093;48.148;8.542;2023-08-06T00:09:50;5.35;;;1.60;;
19861;SDS011;10093;48.148;8.542;2023-08-06T00:12:15;5.20;;;1.60;;
19861;SDS011;10093;48.148;8.542;2023-08-06T00:14:41;2.63;;;1.27;;
19861;SDS011;10093;48.148;8.542;2023-08-06T00:17:07;2.33;;;1.70;;
19861;SDS011;10093;48.148;8.542;2023-08-06T00:19:33;4.43;;;1.65;;
19861;SDS011;10093;48.148;8.542;2023-08-06T00:21:58;8.40;;;2.10;;
19861;SDS011;10093;48.148;8.542;2023-08-06T00:24:24;4.93;;;2.10;;
19861;SDS011;10093;48.148;8.542;2023-08-06T00:26:50;3.28;;;1.60;;
19861;SDS011;10093;48.148;8.542;2023-08-06T00:29:15;2.15;;;1.80;;
19861;SDS011;10093;48.148;8.542;2023-08-06T00:31:41;4.07;;;1.80;;
19861;SDS011;10093;48.148;8.542;2023-08-06T00:34:06;6.70;;;1.92;;
19861;SDS011;10093;48.148;8.542;2023-08-06T00:36:32;5.65;;;1.75;;
19861;SDS011;10093;48.148;8.542;2023-08-06T00:38:58;4.43;;;1.70;;
19861;SDS011;10093;48.148;8.542;2023-08-06T00:41:23;3.10;;;1.60;;
19861;SDS011;10093;48.148;8.542;2023-08-06T00:43:49;2.63;;;1.70;;
19861;SDS011;10093;48.148;8.542;2023-08-06T00:46:14;4.47;;;1.95;;
19861;SDS011;10093;48.148;8.542;2023-08-06T00:48:40;3.90;;;1.90;;
19861;SDS011;10093;48.148;8.542;2023-08-06T00:51:08;3.42;;;1.90;;
19861;SDS011;10093;48.148;8.542;2023-08-06T00:53:35;3.08;;;1.85;;
19861;SDS011;10093;48.148;8.542;2023-08-06T00:56:02;4.53;;;1.90;;
19861;SDS011;10093;48.148;8.542;2023-08-06T00:58:28;5.35;;;1.60;;
19861;SDS011;10093;48.148;8.542;2023-08-06T01:00:54;2.47;;;1.70;;
19861;SDS011;10093;48.148;8.542;2023-08-06T01:03:20;1.77;;;1.58;;
19861;SDS011;10093;48.148;8.542;2023-08-06T01:05:45;4.40;;;2.05;;
19861;SDS011;10093;48.148;8.542;2023-08-06T01:13:53;9.38;;;1.80;;
19861;SDS011;10093;48.148;8.542;2023-08-06T01:16:20;6.35;;;2.47;;
19861;SDS011;10093;48.148;8.542;2023-08-06T01:18:47;3.53;;;1.83;;
19861;SDS011;10093;48.148;8.542;2023-08-06T01:21:16;3.60;;;1.65;;
19861;SDS011;10093;48.148;8.542;2023-08-06T01:23:43;4.70;;;2.15;;
19861;SDS011;10093;48.148;8.542;2023-08-06T01:31:41;2.75;;;2.03;;
19861;SDS011;10093;48.148;8.542;2023-08-06T01:34:10;2.22;;;1.50;;
19861;SDS011;10093;48.148;8.542;2023-08-06T01:36:41;6.70;;;1.70;;
19861;SDS011;10093;48.148;8.542;2023-08-06T01:39:07;3.47;;;1.75;;
19861;SDS011;10093;48.148;8.542;2023-08-06T01:41:32;3.22;;;2.08;;
19861;SDS011;10093;48.148;8.542;2023-08-06T01:43:58;2.40;;;1.77;;
19861;SDS011;10093;48.148;8.542;2023-08-06T01:46:23;1.70;;;1.50;;
19861;SDS011;10093;48.148;8.542;2023-08-06T01:48:49;3.80;;;1.95;;
19861;SDS011;10093;48.148;8.542;2023-08-06T01:51:15;3.50;;;1.63;;
19861;SDS011;10093;48.148;8.542;2023-08-06T01:53:40;1.88;;;1.67;;
19861;SDS011;10093;48.148;8.542;2023-08-06T01:56:06;4.18;;;1.83;;
19861;SDS011;10093;48.148;8.542;2023-08-06T01:58:31;4.22;;;1.60;;
19861;SDS011;10093;48.148;8.542;2023-08-06T02:00:57;3.88;;;1.70;;
19861;SDS011;10093;48.148;8.542;2023-08-06T02:03:22;3.58;;;1.35;;
19861;SDS011;10093;48.148;8.542;2023-08-06T02:05:48;2.72;;;2.03;;
19861;SDS011;10093;48.148;8.542;2023-08-06T02:08:14;2.85;;;1.80;;
19861;SDS011;10093;48.148;8.542;2023-08-06T02:10:39;3.88;;;1.50;;
19861;SDS011;10093;48.148;8.542;2023-08-06T02:13:06;3.05;;;1.33;;
19861;SDS011;10093;48.148;8.542;2023-08-06T02:15:32;4.18;;;1.95;;
19861;SDS011;10093;48.148;8.542;2023-08-06T02:17:57;5.53;;;1.40;;
19861;SDS011;10093;48.148;8.542;2023-08-06T02:20:23;5.15;;;1.90;;
19861;SDS011;10093;48.148;8.542;2023-08-06T02:22:49;2.55;;;1.67;;
19861;SDS011;10093;48.148;8.542;2023-08-06T02:25:14;4.70;;;1.73;;
19861;SDS011;10093;48.148;8.542;2023-08-06T02:27:40;2.40;;;1.95;;
19861;SDS011;10093;48.148;8.542;2023-08-06T02:30:06;2.30;;;1.50;;
19861;SDS011;10093;48.148;8.542;2023-08-06T02:32:32;3.45;;;1.70;;
19861;SDS011;10093;48.148;8.542;2023-08-06T02:35:00;2.38;;;1.80;;
19861;SDS011;10093;48.148;8.542;2023-08-06T02:37:26;2.72;;;1.63;;
19861;SDS011;10093;48.148;8.542;2023-08-06T02:39:52;9.05;;;1.70;;
19861;SDS011;10093;48.148;8.542;2023-08-06T02:42:18;3.15;;;1.50;;
19861;SDS011;10093;48.148;8.542;2023-08-06T02:44:43;3.30;;;1.35;;
19861;SDS011;10093;48.148;8.542;2023-08-06T02:47:09;2.78;;;1.73;;
19861;SDS011;10093;48.148;8.542;2023-08-06T02:49:34;2.88;;;1.80;;
19861;SDS011;10093;48.148;8.542;2023-08-06T02:52:00;3.80;;;1.80;;
19861;SDS011;10093;48.148;8.542;2023-08-06T02:54:26;2.05;;;1.80;;
19861;SDS011;10093;48.148;8.542;2023-08-06T02:56:51;2.20;;;1.60;;
19861;SDS011;10093;48.148;8.542;2023-08-06T02:59:17;5.03;;;1.88;;
19861;SDS011;10093;48.148;8.542;2023-08-06T03:01:42;4.18;;;2.15;;
19861;SDS011;10093;48.148;8.542;2023-08-06T03:04:08;3.72;;;1.83;;
19861;SDS011;10093;48.148;8.542;2023-08-06T03:06:34;3.60;;;2.33;;
19861;SDS011;10093;48.148;8.542;2023-08-06T03:08:59;3.50;;;2.45;;
19861;SDS011;10093;48.148;8.542;2023-08-06T03:11:25;5.00;;;2.47;;
19861;SDS011;10093;48.148;8.542;2023-08-06T03:13:50;6.65;;;3.00;;
19861;SDS011;10093;48.148;8.542;2023-08-06T03:16:16;7.35;;;2.72;;
19861;SDS011;10093;48.148;8.542;2023-08-06T03:18:41;5.50;;;2.28;;
19861;SDS011;10093;48.148;8.542;2023-08-06T03:21:07;6.53;;;3.03;;
19861;SDS011;10093;48.148;8.542;2023-08-06T03:23:33;4.60;;;2.75;;
19861;SDS011;10093;48.148;8.542;2023-08-06T03:26:03;4.90;;;2.80;;
19861;SDS011;10093;48.148;8.542;2023-08-06T03:28:28;4.30;;;2.42;;
19861;SDS011;10093;48.148;8.542;2023-08-06T03:31:01;7.85;;;2.70;;
19861;SDS011;10093;48.148;8.542;2023-08-06T03:33:27;5.40;;;2.60;;
19861;SDS011;10093;48.148;8.542;2023-08-06T03:35:52;3.17;;;1.90;;
19861;SDS011;10093;48.148;8.542;2023-08-06T03:38:18;2.25;;;0.60;;
19861;SDS011;10093;48.148;8.542;2023-08-06T03:40:43;2.72;;;0.60;;
19861;SDS011;10093;48.148;8.542;2023-08-06T03:43:09;2.10;;;0.40;;
19861;SDS011;10093;48.148;8.542;2023-08-06T03:45:35;3.22;;;0.47;;
19861;SDS011;10093;48.148;8.542;2023-08-06T03:48:00;1.35;;;0.30;;
19861;SDS011;10093;48.148;8.542;2023-08-06T03:50:26;2.97;;;0.20;;
19861;SDS011;10093;48.148;8.542;2023-08-06T03:52:51;1.88;;;0.15;;
19861;SDS011;10093;48.148;8.542;2023-08-06T03:55:17;1.95;;;0.20;;
19861;SDS011;10093;48.148;8.542;2023-08-06T03:57:43;2.03;;;0.30;;
19861;SDS011;10093;48.148;8.542;2023-08-06T04:00:08;2.75;;;0.20;;
19861;SDS011;10093;48.148;8.542;2023-08-06T04:02:34;1.70;;;0.10;;
19861;SDS011;10093;48.148;8.542;2023-08-06T04:05:00;2.03;;;0.20;;
19861;SDS011;10093;48.148;8.542;2023-08-06T04:07:26;0.20;;;0.10;;
19861;SDS011;10093;48.148;8.542;2023-08-06T04:09:57;1.33;;;0.20;;
19861;SDS011;10093;48.148;8.542;2023-08-06T04:12:24;0.90;;;0.20;;
19861;SDS011;10093;48.148;8.542;2023-08-06T04:14:50;1.55;;;0.20;;
19861;SDS011;10093;48.148;8.542;2023-08-06T04:17:19;1.27;;;0.10;;
19861;SDS011;10093;48.148;8.542;2023-08-06T04:19:50;1.45;;;0.20;;
19861;SDS011;10093;48.148;8.542;2023-08-06T04:22:17;2.80;;;0.20;;
19861;SDS011;10093;48.148;8.542;2023-08-06T04:24:43;1.42;;;0.20;;
19861;SDS011;10093;48.148;8.542;2023-08-06T04:27:09;0.80;;;0.10;;
19861;SDS011;10093;48.148;8.542;2023-08-06T04:29:35;0.28;;;0.20;;
19861;SDS011;10093;48.148;8.542;2023-08-06T04:32:01;1.60;;;0.10;;
19861;SDS011;10093;48.148;8.542;2023-08-06T04:34:28;1.95;;;0.20;;
19861;SDS011;10093;48.148;8.542;2023-08-06T04:36:54;2.63;;;0.20;;
19861;SDS011;10093;48.148;8.542;2023-08-06T04:39:20;1.02;;;0.10;;
19861;SDS011;10093;48.148;8.542;2023-08-06T04:41:45;0.80;;;0.10;;
19861;SDS011;10093;48.148;8.542;2023-08-06T04:44:11;2.25;;;0.10;;
19861;SDS011;10093;48.148;8.542;2023-08-06T04:46:36;0.90;;;0.10;;
19861;SDS011;10093;48.148;8.542;2023-08-06T04:49:02;0.50;;;0.10;;
19861;SDS011;10093;48.148;8.542;2023-08-06T04:51:27;1.27;;;0.20;;
19861;SDS011;10093;48.148;8.542;2023-08-06T04:53:53;1.40;;;0.20;;
19861;SDS011;10093;48.148;8.542;2023-08-06T04:56:19;1.45;;;0.20;;
19861;SDS011;10093;48.148;8.542;2023-08-06T04:58:44;0.82;;;0.13;;
19861;SDS011;10093;48.148;8.542;2023-08-06T05:01:10;1.65;;;0.20;;
19861;SDS011;10093;48.148;8.542;2023-08-06T05:03:35;0.45;;;0.15;;
19861;SDS011;10093;48.148;8.542;2023-08-06T05:06:01;1.48;;;0.10;;
19861;SDS011;10093;48.148;8.542;2023-08-06T05:08:27;0.77;;;0.10;;
19861;SDS011;10093;48.148;8.542;2023-08-06T05:10:52;2.30;;;0.20;;
19861;SDS011;10093;48.148;8.542;2023-08-06T05:13:18;0.60;;;0.10;;
19861;SDS011;10093;48.148;8.542;2023-08-06T05:15:44;0.47;;;0.10;;
19861;SDS011;10093;48.148;8.542;2023-08-06T05:18:11;0.75;;;0.20;;
19861;SDS011;10093;48.148;8.542;2023-08-06T05:20:37;1.45;;;0.10;;
19861;SDS011;10093;48.148;8.542;2023-08-06T05:23:03;0.32;;;0.10;;
19861;SDS011;10093;48.148;8.542;2023-08-06T05:25:29;0.57;;;0.13;;
19861;SDS011;10093;48.148;8.542;2023-08-06T05:27:55;0.32;;;0.10;;
19861;SDS011;10093;48.148;8.542;2023-08-06T05:30:21;0.10;;;0.10;;
19861;SDS011;10093;48.148;8.542;2023-08-06T05:32:46;1.35;;;0.10;;
19861;SDS011;10093;48.148;8.542;2023-08-06T05:35:12;0.93;;;0.10;;
19861;SDS011;10093;48.148;8.542;2023-08-06T05:37:37;0.13;;;0.10;;
19861;SDS011;10093;48.148;8.542;2023-08-06T05:40:03;2.90;;;0.10;;
19861;SDS011;10093;48.148;8.542;2023-08-06T05:42:29;0.25;;;0.10;;
19861;SDS011;10093;48.148;8.542;2023-08-06T05:44:55;1.13;;;0.30;;
19861;SDS011;10093;48.148;8.542;2023-08-06T05:47:21;2.17;;;0.08;;
19861;SDS011;10093;48.148;8.542;2023-08-06T05:49:47;0.60;;;0.10;;
19861;SDS011;10093;48.148;8.542;2023-08-06T05:52:12;0.60;;;0.05;;
19861;SDS011;10093;48.148;8.542;2023-08-06T05:54:38;0.57;;;0.10;;
19861;SDS011;10093;48.148;8.542;2023-08-06T05:57:05;1.75;;;0.10;;
19861;SDS011;10093;48.148;8.542;2023-08-06T05:59:31;1.92;;;1.73;;
19861;SDS011;10093;48.148;8.542;2023-08-06T06:01:57;1.35;;;0.10;;
19861;SDS011;10093;48.148;8.542;2023-08-06T06:04:22;2.33;;;1.10;;
19861;SDS011;10093;48.148;8.542;2023-08-06T06:06:48;0.20;;;0.10;;
19861;SDS011;10093;48.148;8.542;2023-08-06T06:09:14;0.10;;;0.03;;
19861;SDS011;10093;48.148;8.542;2023-08-06T06:11:39;1.05;;;0.57;;
19861;SDS011;10093;48.148;8.542;2023-08-06T06:14:05;0.50;;;0.30;;
19861;SDS011;10093;48.148;8.542;2023-08-06T06:16:30;0.65;;;0.65;;
19861;SDS011;10093;48.148;8.542;2023-08-06T06:18:56;0.45;;;0.40;;
19861;SDS011;10093;48.148;8.542;2023-08-06T06:21:22;0.20;;;0.03;;
19861;SDS011;10093;48.148;8.542;2023-08-06T06:23:49;0.55;;;0.08;;
19861;SDS011;10093;48.148;8.542;2023-08-06T06:26:16;0.00;;;0.00;;
19861;SDS011;10093;48.148;8.542;2023-08-06T06:28:45;1.08;;;0.00;;
19861;SDS011;10093;48.148;8.542;2023-08-06T06:31:10;0.08;;;0.00;;
19861;SDS011;10093;48.148;8.542;2023-08-06T06:33:36;0.10;;;0.00;;
19861;SDS011;10093;48.148;8.542;2023-08-06T06:36:01;0.00;;;0.00;;
19861;SDS011;10093;48.148;8.542;2023-08-06T06:38:28;0.10;;;0.00;;
19861;SDS011;10093;48.148;8.542;2023-08-06T06:40:54;0.00;;;0.00;;
19861;SDS011;10093;48.148;8.542;2023-08-06T06:43:21;0.17;;;0.00;;
19861;SDS011;10093;48.148;8.542;2023-08-06T06:45:47;0.00;;;0.00;;
19861;SDS011;10093;48.148;8.542;2023-08-06T06:48:17;0.00;;;0.00;;
19861;SDS011;10093;48.148;8.542;2023-08-06T06:50:42;0.00;;;0.00;;
19861;SDS011;10093;48.148;8.542;2023-08-06T06:53:11;0.20;;;0.00;;
19861;SDS011;10093;48.148;8.542;2023-08-06T06:55:37;0.00;;;0.00;;
19861;SDS011;10093;48.148;8.542;2023-08-06T06:58:03;0.45;;;0.00;;
19861;SDS011;10093;48.148;8.542;2023-08-06T07:00:28;1.88;;;0.00;;
19861;SDS011;10093;48.148;8.542;2023-08-06T07:02:54;0.00;;;0.00;;
19861;SDS011;10093;48.148;8.542;2023-08-06T07:05:19;0.40;;;0.00;;
19861;SDS011;10093;48.148;8.542;2023-08-06T07:07:45;0.00;;;0.00;;
19861;SDS011;10093;48.148;8.542;2023-08-06T07:10:11;0.60;;;0.00;;
19861;SDS011;10093;48.148;8.542;2023-08-06T07:12:36;0.13;;;0.00;;
19861;SDS011;10093;48.148;8.542;2023-08-06T07:15:04;0.03;;;0.00;;
19861;SDS011;10093;48.148;8.542;2023-08-06T07:17:31;0.30;;;0.00;;
19861;SDS011;10093;48.148;8.542;2023-08-06T07:19:56;1.27;;;0.00;;
19861;SDS011;10093;48.148;8.542;2023-08-06T07:22:22;0.15;;;0.00;;
19861;SDS011;10093;48.148;8.542;2023-08-06T07:24:47;0.00;;;0.00;;
19861;SDS011;10093;48.148;8.542;2023-08-06T07:27:13;0.00;;;0.00;;
19861;SDS011;10093;48.148;8.542;2023-08-06T07:29:39;0.00;;;0.00;;
19861;SDS011;10093;48.148;8.542;2023-08-06T07:32:06;0.00;;;0.00;;
19861;SDS011;10093;48.148;8.542;2023-08-06T07:34:32;0.00;;;0.00;;
19861;SDS011;10093;48.148;8.542;2023-08-06T07:36:58;0.50;;;0.00;;
19861;SDS011;10093;48.148;8.542;2023-08-06T07:39:23;0.28;;;0.00;;
19861;SDS011;10093;48.148;8.542;2023-08-06T07:41:49;0.00;;;0.00;;
19861;SDS011;10093;48.148;8.542;2023-08-06T07:44:15;0.28;;;0.00;;
19861;SDS011;10093;48.148;8.542;2023-08-06T07:46:41;0.10;;;0.00;;
19861;SDS011;10093;48.148;8.542;2023-08-06T07:49:06;0.17;;;0.00;;
19861;SDS011;10093;48.148;8.542;2023-08-06T07:51:32;0.38;;;0.00;;
19861;SDS011;10093;48.148;8.542;2023-08-06T07:53:58;0.00;;;0.00;;
19861;SDS011;10093;48.148;8.542;2023-08-06T07:56:23;0.00;;;0.00;;
19861;SDS011;10093;48.148;8.542;2023-08-06T07:58:49;0.00;;;0.00;;
19861;SDS011;10093;48.148;8.542;2023-08-06T08:01:15;0.00;;;0.00;;
19861;SDS011;10093;48.148;8.542;2023-08-06T08:03:40;0.00;;;0.00;;
19861;SDS011;10093;48.148;8.542;2023-08-06T08:06:06;0.10;;;0.00;;
19861;SDS011;10093;48.148;8.542;2023-08-06T08:08:32;0.25;;;0.00;;
19861;SDS011;10093;48.148;8.542;2023-08-06T08:10:57;0.05;;;0.00;;
19861;SDS011;10093;48.148;8.542;2023-08-06T08:13:25;0.65;;;0.00;;
19861;SDS011;10093;48.148;8.542;2023-08-06T08:15:55;0.00;;;0.00;;
19861;SDS011;10093;48.148;8.542;2023-08-06T08:18:24;0.63;;;0.00;;
19861;SDS011;10093;48.148;8.542;2023-08-06T08:20:50;0.10;;;0.10;;
19861;SDS011;10093;48.148;8.542;2023-08-06T08:23:16;1.35;;;0.00;;
19861;SDS011;10093;48.148;8.542;2023-08-06T08:25:42;0.00;;;0.00;;
19861;SDS011;10093;48.148;8.542;2023-08-06T08:28:07;0.00;;;0.00;;
19861;SDS011;10093;48.148;8.542;2023-08-06T08:30:33;0.00;;;0.00;;
19861;SDS011;10093;48.148;8.542;2023-08-06T08:32:59;0.00;;;0.00;;
19861;SDS011;10093;48.148;8.542;2023-08-06T08:35:24;1.65;;;0.00;;
19861;SDS011;10093;48.148;8.542;2023-08-06T08:37:50;0.30;;;0.00;;
19861;SDS011;10093;48.148;8.542;2023-08-06T08:40:16;0.08;;;0.00;;
19861;SDS011;10093;48.148;8.542;2023-08-06T08:42:42;0.00;;;0.00;;
19861;SDS011;10093;48.148;8.542;2023-08-06T08:45:11;2.28;;;0.00;;
19861;SDS011;10093;48.148;8.542;2023-08-06T08:47:39;0.00;;;0.00;;
19861;SDS011;10093;48.148;8.542;2023-08-06T08:50:08;0.00;;;0.00;;
19861;SDS011;10093;48.148;8.542;2023-08-06T08:52:36;0.73;;;0.00;;
19861;SDS011;10093;48.148;8.542;2023-08-06T08:55:05;0.00;;;0.00;;
19861;SDS011;10093;48.148;8.542;2023-08-06T08:57:32;0.00;;;0.00;;
19861;SDS011;10093;48.148;8.542;2023-08-06T08:59:58;0.00;;;0.00;;
19861;SDS011;10093;48.148;8.542;2023-08-06T09:02:24;0.00;;;0.00;;
19861;SDS011;10093;48.148;8.542;2023-08-06T09:04:52;0.15;;;0.10;;
19861;SDS011;10093;48.148;8.542;2023-08-06T09:07:19;0.00;;;0.00;;
19861;SDS011;10093;48.148;8.542;2023-08-06T09:09:48;0.00;;;0.00;;
19861;SDS011;10093;48.148;8.542;2023-08-06T09:12:15;0.00;;;0.00;;
19861;SDS011;10093;48.148;8.542;2023-08-06T09:14:41;0.00;;;0.00;;
19861;SDS011;10093;48.148;8.542;2023-08-06T09:17:07;0.70;;;0.00;;
19861;SDS011;10093;48.148;8.542;2023-08-06T09:19:35;1.45;;;0.00;;
19861;SDS011;10093;48.148;8.542;2023-08-06T09:22:01;0.00;;;0.00;;
19861;SDS011;10093;48.148;8.542;2023-08-06T09:24:27;2.05;;;0.00;;
19861;SDS011;10093;48.148;8.542;2023-08-06T09:26:53;0.00;;;0.00;;
19861;SDS011;10093;48.148;8.542;2023-08-06T09:29:19;0.40;;;0.00;;
19861;SDS011;10093;48.148;8.542;2023-08-06T09:31:46;0.00;;;0.00;;
19861;SDS011;10093;48.148;8.542;2023-08-06T09:36:42;0.30;;;0.00;;
19861;SDS011;10093;48.148;8.542;2023-08-06T09:39:15;0.00;;;0.00;;
19861;SDS011;10093;48.148;8.542;2023-08-06T09:41:41;1.15;;;0.70;;
19861;SDS011;10093;48.148;8.542;2023-08-06T09:44:20;0.75;;;0.20;;
19861;SDS011;10093;48.148;8.542;2023-08-06T09:49:15;0.00;;;0.00;;
19861;SDS011;10093;48.148;8.542;2023-08-06T09:51:41;0.00;;;0.00;;
19861;SDS011;10093;48.148;8.542;2023-08-06T09:54:07;0.00;;;0.00;;
19861;SDS011;10093;48.148;8.542;2023-08-06T09:56:37;0.00;;;0.00;;
19861;SDS011;10093;48.148;8.542;2023-08-06T09:59:05;0.63;;;0.00;;
19861;SDS011;10093;48.148;8.542;2023-08-06T10:01:32;1.35;;;0.00;;
19861;SDS011;10093;48.148;8.542;2023-08-06T10:03:59;0.00;;;0.00;;
19861;SDS011;10093;48.148;8.542;2023-08-06T10:06:26;0.00;;;0.00;;
19861;SDS011;10093;48.148;8.542;2023-08-06T10:08:54;0.00;;;0.00;;
19861;SDS011;10093;48.148;8.542;2023-08-06T10:11:20;0.00;;;0.00;;
19861;SDS011;10093;48.148;8.542;2023-08-06T10:13:49;0.00;;;0.00;;
19861;SDS011;10093;48.148;8.542;2023-08-06T10:16:26;0.52;;;0.00;;
19861;SDS011;10093;48.148;8.542;2023-08-06T10:18:52;0.00;;;0.00;;
19861;SDS011;10093;48.148;8.542;2023-08-06T10:21:19;0.00;;;0.00;;
19861;SDS011;10093;48.148;8.542;2023-08-06T10:23:49;1.17;;;0.00;;
19861;SDS011;10093;48.148;8.542;2023-08-06T10:26:19;0.00;;;0.00;;
19861;SDS011;10093;48.148;8.542;2023-08-06T10:28:45;0.90;;;0.00;;
19861;SDS011;10093;48.148;8.542;2023-08-06T10:31:11;0.70;;;0.00;;
19861;SDS011;10093;48.148;8.542;2023-08-06T10:33:43;0.10;;;0.00;;
19861;SDS011;10093;48.148;8.542;2023-08-06T10:36:12;0.32;;;0.00;;
19861;SDS011;10093;48.148;8.542;2023-08-06T10:38:49;0.52;;;0.00;;
19861;SDS011;10093;48.148;8.542;2023-08-06T10:41:16;0.00;;;0.00;;
19861;SDS011;10093;48.148;8.542;2023-08-06T10:43:47;0.10;;;0.10;;
19861;SDS011;10093;48.148;8.542;2023-08-06T10:46:28;0.52;;;0.00;;
19861;SDS011;10093;48.148;8.542;2023-08-06T10:48:54;0.00;;;0.00;;
19861;SDS011;10093;48.148;8.542;2023-08-06T10:51:19;0.00;;;0.00;;
19861;SDS011;10093;48.148;8.542;2023-08-06T10:53:46;0.85;;;0.00;;
19861;SDS011;10093;48.148;8.542;2023-08-06T10:56:16;0.10;;;0.00;;
19861;SDS011;10093;48.148;8.542;2023-08-06T10:58:47;0.47;;;0.00;;
19861;SDS011;10093;48.148;8.542;2023-08-06T11:01:14;0.10;;;0.00;;
19861;SDS011;10093;48.148;8.542;2023-08-06T11:03:41;0.30;;;0.00;;
19861;SDS011;10093;48.148;8.542;2023-08-06T11:06:07;0.00;;;0.00;;
19861;SDS011;10093;48.148;8.542;2023-08-06T11:08:34;0.00;;;0.00;;
19861;SDS011;10093;48.148;8.542;2023-08-06T11:11:11;0.08;;;0.00;;
19861;SDS011;10093;48.148;8.542;2023-08-06T11:13:38;0.52;;;0.00;;
19861;SDS011;10093;48.148;8.542;2023-08-06T11:16:05;0.28;;;0.00;;
19861;SDS011;10093;48.148;8.542;2023-08-06T11:18:32;0.00;;;0.00;;
19861;SDS011;10093;48.148;8.542;2023-08-06T11:20:58;0.80;;;0.00;;
19861;SDS011;10093;48.148;8.542;2023-08-06T11:23:26;0.20;;;0.00;;
19861;SDS011;10093;48.148;8.542;2023-08-06T11:25:55;0.00;;;0.00;;
19861;SDS011;10093;48.148;8.542;2023-08-06T11:28:24;0.80;;;0.00;;
19861;SDS011;10093;48.148;8.542;2023-08-06T11:30:50;0.00;;;0.00;;
19861;SDS011;10093;48.148;8.542;2023-08-06T11:33:20;1.55;;;0.00;;
19861;SDS011;10093;48.148;8.542;2023-08-06T11:35:47;0.00;;;0.00;;
19861;SDS011;10093;48.148;8.542;2023-08-06T11:38:13;0.00;;;0.00;;
19861;SDS011;10093;48.148;8.542;2023-08-06T11:40:39;0.68;;;0.00;;
19861;SDS011;10093;48.148;8.542;2023-08-06T11:43:07;0.43;;;0.00;;
19861;SDS011;10093;48.148;8.542;2023-08-06T11:45:37;0.30;;;0.00;;
19861;SDS011;10093;48.148;8.542;2023-08-06T11:48:03;1.08;;;0.00;;
19861;SDS011;10093;48.148;8.542;2023-08-06T11:50:30;0.00;;;0.00;;
19861;SDS011;10093;48.148;8.542;2023-08-06T11:52:56;0.52;;;0.00;;
19861;SDS011;10093;48.148;8.542;2023-08-06T11:55:24;0.17;;;0.00;;
19861;SDS011;10093;48.148;8.542;2023-08-06T11:57:50;2.90;;;0.10;;
19861;SDS011;10093;48.148;8.542;2023-08-06T12:00:17;0.25;;;0.10;;
19861;SDS011;10093;48.148;8.542;2023-08-06T12:02:45;0.35;;;0.10;;
19861;SDS011;10093;48.148;8.542;2023-08-06T12:05:17;0.13;;;0.10;;
19861;SDS011;10093;48.148;8.542;2023-08-06T12:07:51;0.03;;;0.03;;
19861;SDS011;10093;48.148;8.542;2023-08-06T12:10:18;0.13;;;0.10;;
19861;SDS011;10093;48.148;8.542;2023-08-06T12:12:47;0.05;;;0.00;;
19861;SDS011;10093;48.148;8.542;2023-08-06T12:15:13;1.60;;;0.08;;
19861;SDS011;10093;48.148;8.542;2023-08-06T12:17:39;0.20;;;0.00;;
19861;SDS011;10093;48.148;8.542;2023-08-06T12:20:06;0.00;;;0.00;;
19861;SDS011;10093;48.148;8.542;2023-08-06T12:22:32;0.00;;;0.00;;
19861;SDS011;10093;48.148;8.542;2023-08-06T12:25:03;1.92;;;0.00;;
19861;SDS011;10093;48.148;8.542;2023-08-06T12:27:34;0.00;;;0.00;;
19861;SDS011;10093;48.148;8.542;2023-08-06T12:30:00;0.00;;;0.00;;
19861;SDS011;10093;48.148;8.542;2023-08-06T12:32:26;0.00;;;0.00;;
19861;SDS011;10093;48.148;8.542;2023-08-06T12:34:51;0.00;;;0.00;;
19861;SDS011;10093;48.148;8.542;2023-08-06T12:37:17;0.00;;;0.00;;
19861;SDS011;10093;48.148;8.542;2023-08-06T12:39:43;0.00;;;0.00;;
19861;SDS011;10093;48.148;8.542;2023-08-06T12:42:08;0.00;;;0.00;;
19861;SDS011;10093;48.148;8.542;2023-08-06T12:44:35;0.20;;;0.00;;
19861;SDS011;10093;48.148;8.542;2023-08-06T12:47:00;0.55;;;0.00;;
19861;SDS011;10093;48.148;8.542;2023-08-06T12:49:26;0.93;;;0.00;;
19861;SDS011;10093;48.148;8.542;2023-08-06T12:51:53;1.25;;;0.00;;
19861;SDS011;10093;48.148;8.542;2023-08-06T12:54:19;0.00;;;0.00;;
19861;SDS011;10093;48.148;8.542;2023-08-06T12:56:46;0.00;;;0.00;;
19861;SDS011;10093;48.148;8.542;2023-08-06T12:59:13;0.00;;;0.00;;
19861;SDS011;10093;48.148;8.542;2023-08-06T13:01:40;1.27;;;0.00;;
19861;SDS011;10093;48.148;8.542;2023-08-06T13:04:06;0.00;;;0.00;;
19861;SDS011;10093;48.148;8.542;2023-08-06T13:06:31;1.17;;;0.00;;
19861;SDS011;10093;48.148;8.542;2023-08-06T13:09:08;0.40;;;0.00;;
19861;SDS011;10093;48.148;8.542;2023-08-06T13:11:35;0.00;;;0.00;;
19861;SDS011;10093;48.148;8.542;2023-08-06T13:14:09;1.25;;;0.00;;
19861;SDS011;10093;48.148;8.542;2023-08-06T13:16:36;0.22;;;0.00;;
19861;SDS011;10093;48.148;8.542;2023-08-06T13:19:03;0.00;;;0.00;;
19861;SDS011;10093;48.148;8.542;2023-08-06T13:21:57;0.65;;;0.00;;
19861;SDS011;10093;48.148;8.542;2023-08-06T13:24:26;0.00;;;0.00;;
19861;SDS011;10093;48.148;8.542;2023-08-06T13:26:52;0.00;;;0.00;;
19861;SDS011;10093;48.148;8.542;2023-08-06T13:29:18;0.00;;;0.00;;
19861;SDS011;10093;48.148;8.542;2023-08-06T13:31:43;0.00;;;0.00;;
19861;SDS011;10093;48.148;8.542;2023-08-06T13:34:09;0.10;;;0.10;;
19861;SDS011;10093;48.148;8.542;2023-08-06T13:36:34;0.00;;;0.00;;
19861;SDS011;10093;48.148;8.542;2023-08-06T13:39:00;0.15;;;0.00;;
19861;SDS011;10093;48.148;8.542;2023-08-06T13:41:26;0.08;;;0.00;;
19861;SDS011;10093;48.148;8.542;2023-08-06T13:43:51;0.00;;;0.00;;
19861;SDS011;10093;48.148;8.542;2023-08-06T13:46:17;0.00;;;0.00;;
19861;SDS011;10093;48.148;8.542;2023-08-06T13:48:45;0.00;;;0.00;;
19861;SDS011;10093;48.148;8.542;2023-08-06T13:51:11;0.03;;;0.00;;
19861;SDS011;10093;48.148;8.542;2023-08-06T13:53:40;0.85;;;0.00;;
19861;SDS011;10093;48.148;8.542;2023-08-06T13:56:06;0.00;;;0.00;;
19861;SDS011;10093;48.148;8.542;2023-08-06T13:58:34;0.17;;;0.00;;
19861;SDS011;10093;48.148;8.542;2023-08-06T14:01:00;0.05;;;0.00;;
19861;SDS011;10093;48.148;8.542;2023-08-06T14:03:26;0.22;;;0.10;;
19861;SDS011;10093;48.148;8.542;2023-08-06T14:05:51;0.10;;;0.10;;
19861;SDS011;10093;48.148;8.542;2023-08-06T14:08:20;0.43;;;0.10;;
19861;SDS011;10093;48.148;8.542;2023-08-06T14:10:45;0.52;;;0.10;;
19861;SDS011;10093;48.148;8.542;2023-08-06T14:13:11;0.13;;;0.10;;
19861;SDS011;10093;48.148;8.542;2023-08-06T14:15:37;1.50;;;0.20;;
19861;SDS011;10093;48.148;8.542;2023-08-06T14:18:05;0.10;;;0.10;;
19861;SDS011;10093;48.148;8.542;2023-08-06T14:20:33;0.17;;;0.10;;
19861;SDS011;10093;48.148;8.542;2023-08-06T14:22:59;2.83;;;0.13;;
19861;SDS011;10093;48.148;8.542;2023-08-06T14:25:25;0.82;;;0.10;;
19861;SDS011;10093;48.148;8.542;2023-08-06T14:27:50;0.25;;;0.20;;
19861;SDS011;10093;48.148;8.542;2023-08-06T14:30:16;0.30;;;0.10;;
19861;SDS011;10093;48.148;8.542;2023-08-06T14:32:42;2.00;;;0.20;;
19861;SDS011;10093;48.148;8.542;2023-08-06T14:35:07;1.65;;;0.13;;
19861;SDS011;10093;48.148;8.542;2023-08-06T14:37:33;0.13;;;0.10;;
19861;SDS011;10093;48.148;8.542;2023-08-06T14:39:59;0.10;;;0.10;;
19861;SDS011;10093;48.148;8.542;2023-08-06T14:42:24;0.43;;;0.10;;
19861;SDS011;10093;48.148;8.542;2023-08-06T14:44:50;0.10;;;0.10;;
19861;SDS011;10093;48.148;8.542;2023-08-06T14:47:16;0.43;;;0.20;;
19861;SDS011;10093;48.148;8.542;2023-08-06T14:49:41;2.05;;;0.17;;
19861;SDS011;10093;48.148;8.542;2023-08-06T14:52:07;0.60;;;0.20;;
19861;SDS011;10093;48.148;8.542;2023-08-06T14:54:32;0.10;;;0.10;;
19861;SDS011;10093;48.148;8.542;2023-08-06T14:56:58;1.80;;;0.20;;
19861;SDS011;10093;48.148;8.542;2023-08-06T14:59:24;0.25;;;0.20;;